createdAt,value
2022-09-21T00:01:30.070Z,4.30
2022-09-21T00:04:01.220Z,4.97
2022-09-21T00:06:33.341Z,4.13
2022-09-21T00:09:00.370Z,4.13
2022-09-21T00:11:31.311Z,4.47
2022-09-21T00:14:08.226Z,4.30
2022-09-21T00:16:35.602Z,3.90
2022-09-21T00:19:03.681Z,4.20
2022-09-21T00:21:31.021Z,4.70
2022-09-21T00:23:59.997Z,4.70
2022-09-21T00:26:28.601Z,4.70
2022-09-21T00:28:58.853Z,6.87
2022-09-21T00:31:28.208Z,4.67
2022-09-21T00:33:55.370Z,6.73
2022-09-21T00:36:25.141Z,4.80
2022-09-21T00:38:59.403Z,4.53
2022-09-21T00:41:28.451Z,5.17
2022-09-21T00:44:20.493Z,8.93
2022-09-21T00:46:49.892Z,4.50
2022-09-21T00:49:18.189Z,5.20
2022-09-21T00:51:46.852Z,6.67
2022-09-21T00:54:30.536Z,4.70
2022-09-21T00:57:03.217Z,5.17
2022-09-21T00:59:34.927Z,4.30
2022-09-21T01:02:02.327Z,5.43
2022-09-21T01:04:30.252Z,5.13
2022-09-21T01:07:01.492Z,6.53
2022-09-21T01:09:29.132Z,5.53
2022-09-21T01:12:43.443Z,4.40
2022-09-21T01:15:23.071Z,5.63
2022-09-21T01:18:22.321Z,4.50
2022-09-21T01:20:52.673Z,5.97
2022-09-21T01:24:14.693Z,4.30
2022-09-21T01:27:18.871Z,4.70
2022-09-21T01:30:04.786Z,5.03
2022-09-21T01:32:36.683Z,4.30
2022-09-21T01:35:16.741Z,4.33
2022-09-21T01:38:00.044Z,3.73
2022-09-21T01:40:48.502Z,8.97
2022-09-21T01:43:26.763Z,5.17
2022-09-21T01:45:57.669Z,5.73
2022-09-21T01:48:26.127Z,4.77
2022-09-21T01:50:59.120Z,5.73
2022-09-21T01:53:38.432Z,5.50
2022-09-21T01:56:25.721Z,8.80
2022-09-21T01:59:08.991Z,6.60
2022-09-21T02:01:45.137Z,7.77
2022-09-21T02:04:14.110Z,6.60
2022-09-21T02:06:48.144Z,5.07
2022-09-21T02:09:15.712Z,5.87
2022-09-21T02:11:44.052Z,5.40
2022-09-21T02:14:19.081Z,5.93
2022-09-21T02:17:11.801Z,5.93
2022-09-21T02:20:08.585Z,9.20
2022-09-21T02:22:52.172Z,7.17
2022-09-21T02:25:47.761Z,6.97
2022-09-21T02:28:26.755Z,6.97
2022-09-21T02:31:16.325Z,9.37
2022-09-21T02:34:12.600Z,9.60
2022-09-21T02:37:05.563Z,9.40
2022-09-21T02:39:46.133Z,5.83
2022-09-21T02:42:20.692Z,5.83
2022-09-21T02:44:56.992Z,6.07
2022-09-21T02:47:37.561Z,6.53
2022-09-21T02:50:21.711Z,6.53
2022-09-21T02:52:49.375Z,6.20
2022-09-21T02:55:18.854Z,6.47
2022-09-21T02:57:49.012Z,5.63
2022-09-21T03:00:17.248Z,5.50
2022-09-21T03:02:46.343Z,6.80
2022-09-21T03:05:15.541Z,6.13
2022-09-21T03:07:42.723Z,6.37
2022-09-21T03:10:10.604Z,5.60
2022-09-21T03:12:38.585Z,5.77
2022-09-21T03:15:06.611Z,6.20
2022-09-21T03:17:33.650Z,5.93
2022-09-21T03:20:00.632Z,6.50
2022-09-21T03:22:27.710Z,5.97
2022-09-21T03:24:57.683Z,6.10
2022-09-21T03:27:24.879Z,5.67
2022-09-21T03:29:52.873Z,5.60
2022-09-21T03:32:19.981Z,5.43
2022-09-21T03:34:47.161Z,5.20
2022-09-21T03:37:14.215Z,5.37
2022-09-21T03:39:41.271Z,6.13
2022-09-21T03:42:10.488Z,5.47
2022-09-21T03:44:37.653Z,6.43
2022-09-21T03:47:06.935Z,6.60
2022-09-21T03:49:35.244Z,6.50
2022-09-21T03:52:03.420Z,9.20
2022-09-21T03:54:30.532Z,7.20
2022-09-21T03:56:57.485Z,8.70
2022-09-21T03:59:24.770Z,8.53
2022-09-21T04:01:51.924Z,9.83
2022-09-21T04:04:19.337Z,14.53
2022-09-21T04:06:46.351Z,12.40
2022-09-21T04:09:13.561Z,11.80
2022-09-21T04:11:40.593Z,12.43
2022-09-21T04:14:08.342Z,12.80
2022-09-21T04:16:35.343Z,9.60
2022-09-21T04:19:02.913Z,11.27
2022-09-21T04:21:30.536Z,7.43
2022-09-21T04:23:57.981Z,8.63
2022-09-21T04:26:34.659Z,7.90
2022-09-21T04:29:02.925Z,9.63
2022-09-21T04:31:31.007Z,9.20
2022-09-21T04:33:58.913Z,12.23
2022-09-21T04:36:33.117Z,11.50
2022-09-21T04:39:04.222Z,8.50
2022-09-21T04:41:32.581Z,7.80
2022-09-21T04:44:00.204Z,9.40
2022-09-21T04:46:27.326Z,7.20
2022-09-21T04:48:54.411Z,7.13
2022-09-21T04:51:21.393Z,7.77
2022-09-21T04:53:48.559Z,7.97
2022-09-21T04:56:16.970Z,8.90
2022-09-21T04:58:44.708Z,8.13
2022-09-21T05:01:12.129Z,6.43
2022-09-21T05:03:39.829Z,7.00
2022-09-21T05:06:07.253Z,7.00
2022-09-21T05:08:52.772Z,7.13
2022-09-21T05:11:19.902Z,7.20
2022-09-21T05:13:48.182Z,9.60
2022-09-21T05:16:17.122Z,8.57
2022-09-21T05:18:45.929Z,7.67
2022-09-21T05:21:15.304Z,7.60
2022-09-21T05:23:42.342Z,8.47
2022-09-21T05:26:09.489Z,6.87
2022-09-21T05:28:40.098Z,9.17
2022-09-21T05:32:00.512Z,7.70
2022-09-21T05:35:03.740Z,9.47
2022-09-21T05:37:39.681Z,10.43
2022-09-21T05:40:09.429Z,8.40
2022-09-21T05:42:36.751Z,7.97
2022-09-21T05:45:05.312Z,6.90
2022-09-21T05:48:07.407Z,9.10
2022-09-21T05:50:52.220Z,7.67
2022-09-21T05:53:37.702Z,7.67
2022-09-21T05:56:22.001Z,9.67
2022-09-21T05:59:34.906Z,7.10
2022-09-21T06:02:26.591Z,6.53
2022-09-21T06:04:58.171Z,6.57
2022-09-21T06:07:26.012Z,7.30
2022-09-21T06:09:52.937Z,7.23
2022-09-21T06:12:20.523Z,7.53
2022-09-21T06:14:47.539Z,7.00
2022-09-21T06:17:14.623Z,6.13
2022-09-21T06:19:41.611Z,8.57
2022-09-21T06:22:08.851Z,7.10
2022-09-21T06:24:35.822Z,6.50
2022-09-21T06:27:02.744Z,7.00
2022-09-21T06:29:30.410Z,6.30
2022-09-21T06:31:57.360Z,6.43
2022-09-21T06:34:24.381Z,7.07
2022-09-21T06:36:51.351Z,7.33
2022-09-21T06:39:18.351Z,7.00
2022-09-21T06:41:45.376Z,6.47
2022-09-21T06:44:12.374Z,7.70
2022-09-21T06:46:39.391Z,7.47
2022-09-21T06:49:06.433Z,8.90
2022-09-21T06:51:33.418Z,8.20
2022-09-21T06:54:01.501Z,6.73
2022-09-21T06:56:28.561Z,8.40
2022-09-21T06:58:55.992Z,14.67
2022-09-21T07:01:23.772Z,8.83
2022-09-21T07:03:52.383Z,8.00
2022-09-21T07:06:20.803Z,8.73
2022-09-21T07:11:35.800Z,7.77
2022-09-21T07:14:04.313Z,7.77
2022-09-21T07:16:31.291Z,9.03
2022-09-21T07:19:10.010Z,7.73
2022-09-21T07:21:37.654Z,8.93
2022-09-21T07:24:09.582Z,8.70
2022-09-21T07:26:39.889Z,8.17
2022-09-21T07:29:07.132Z,13.20
2022-09-21T07:31:34.405Z,9.43
2022-09-21T07:34:01.643Z,10.13
2022-09-21T07:36:28.550Z,7.90
2022-09-21T07:38:55.510Z,7.20
2022-09-21T07:41:23.082Z,8.03
2022-09-21T07:43:50.122Z,7.50
2022-09-21T07:46:17.127Z,7.90
2022-09-21T07:48:44.070Z,6.67
2022-09-21T07:51:14.387Z,7.23
2022-09-21T07:53:44.753Z,9.60
2022-09-21T07:56:16.102Z,7.47
2022-09-21T07:59:02.627Z,7.90
2022-09-21T08:01:31.336Z,6.40
2022-09-21T08:03:59.319Z,8.73
2022-09-21T08:06:30.776Z,6.97
2022-09-21T08:08:58.345Z,8.50
2022-09-21T08:11:27.664Z,8.60
2022-09-21T08:13:58.760Z,7.90
2022-09-21T08:16:27.648Z,8.43
2022-09-21T08:18:55.353Z,9.60
2022-09-21T08:21:22.612Z,9.27
2022-09-21T08:23:50.652Z,9.17
2022-09-21T08:26:20.094Z,9.63
2022-09-21T08:28:49.371Z,10.67
2022-09-21T08:31:22.158Z,10.90
2022-09-21T08:33:50.210Z,9.23
2022-09-21T08:36:19.369Z,11.70
2022-09-21T08:38:46.600Z,9.53
2022-09-21T08:41:46.441Z,9.20
2022-09-21T08:44:39.967Z,10.70
2022-09-21T08:47:19.867Z,10.00
2022-09-21T08:49:55.692Z,11.10
2022-09-21T08:52:25.452Z,12.20
2022-09-21T08:54:59.032Z,10.73
2022-09-21T08:57:31.891Z,12.57
2022-09-21T09:00:01.338Z,10.47
2022-09-21T09:02:58.011Z,10.73
2022-09-21T09:05:55.551Z,11.07
2022-09-21T09:08:57.140Z,10.37
2022-09-21T09:11:55.132Z,10.27
2022-09-21T09:15:04.401Z,9.10
2022-09-21T09:17:56.331Z,9.50
2022-09-21T09:20:40.431Z,9.93
2022-09-21T09:23:30.633Z,10.00
2022-09-21T09:26:12.660Z,12.00
2022-09-21T09:28:56.486Z,10.07
2022-09-21T09:31:29.355Z,9.70
2022-09-21T09:34:11.970Z,9.87
2022-09-21T09:36:58.474Z,9.77
2022-09-21T09:39:30.081Z,9.70
2022-09-21T09:42:31.604Z,8.73
2022-09-21T09:45:12.509Z,7.50
2022-09-21T09:48:02.761Z,7.13
2022-09-21T09:50:40.461Z,9.20
2022-09-21T09:53:24.352Z,8.63
2022-09-21T09:55:54.968Z,9.73
2022-09-21T09:58:39.811Z,7.73
2022-09-21T10:01:07.151Z,7.53
2022-09-21T10:03:35.615Z,6.60
2022-09-21T10:06:02.524Z,6.43
2022-09-21T10:08:44.661Z,6.83
2022-09-21T10:11:15.612Z,7.00
2022-09-21T10:13:46.151Z,6.20
2022-09-21T10:16:23.385Z,9.60
2022-09-21T10:18:59.161Z,6.10
2022-09-21T10:21:28.429Z,6.40
2022-09-21T10:24:08.695Z,5.23
2022-09-21T10:26:48.942Z,4.63
2022-09-21T10:29:25.492Z,4.83
2022-09-21T10:32:14.800Z,5.10
2022-09-21T10:35:05.571Z,4.63
2022-09-21T10:37:41.652Z,6.33
2022-09-21T10:40:17.939Z,5.43
2022-09-21T10:42:45.414Z,5.90
2022-09-21T10:45:31.058Z,6.90
2022-09-21T10:47:59.899Z,4.80
2022-09-21T10:50:36.922Z,4.80
2022-09-21T10:53:10.179Z,5.43
2022-09-21T10:55:58.477Z,4.80
2022-09-21T10:58:36.350Z,4.07
2022-09-21T11:01:23.616Z,4.37
2022-09-21T11:04:33.767Z,4.63
2022-09-21T11:07:18.508Z,5.07
2022-09-21T11:10:17.092Z,3.90
2022-09-21T11:13:33.477Z,3.33
2022-09-21T11:16:50.001Z,3.90
2022-09-21T11:19:55.076Z,4.50
2022-09-21T11:22:40.390Z,3.53
2022-09-21T11:25:42.640Z,3.73
2022-09-21T11:28:19.602Z,3.50
2022-09-21T11:31:15.025Z,3.07
2022-09-21T11:34:19.787Z,4.10
2022-09-21T11:37:11.348Z,3.53
2022-09-21T11:39:43.552Z,3.17
2022-09-21T11:43:10.246Z,3.07
2022-09-21T11:45:50.374Z,2.13
2022-09-21T11:55:47.020Z,3.90
2022-09-21T11:58:31.244Z,2.87
2022-09-21T12:01:01.714Z,2.73
2022-09-21T12:04:03.760Z,2.93
2022-09-21T12:06:42.903Z,2.57
2022-09-21T12:09:32.022Z,3.23
2022-09-21T12:12:14.561Z,3.33
2022-09-21T12:14:50.424Z,3.40
2022-09-21T12:17:43.410Z,2.57
2022-09-21T12:20:46.931Z,2.80
2022-09-21T12:23:26.924Z,2.60
2022-09-21T12:25:59.013Z,2.77
2022-09-21T12:28:45.891Z,2.50
2022-09-21T12:31:25.929Z,2.87
2022-09-21T12:34:15.547Z,2.47
2022-09-21T12:37:06.827Z,3.43
2022-09-21T12:39:47.431Z,2.40
2022-09-21T12:42:35.682Z,2.90
2022-09-21T12:45:33.600Z,3.13
2022-09-21T12:48:13.802Z,2.10
2022-09-21T12:51:25.893Z,1.87
2022-09-21T12:54:00.172Z,2.03
2022-09-21T12:56:54.062Z,2.80
2022-09-21T12:59:43.822Z,1.93
2022-09-21T13:02:22.654Z,1.53
2022-09-21T13:05:04.163Z,2.43
2022-09-21T13:08:05.311Z,1.70
2022-09-21T13:10:42.891Z,1.40
2022-09-21T13:13:31.402Z,1.27
2022-09-21T13:15:59.904Z,1.43
2022-09-21T13:18:36.470Z,1.30
2022-09-21T13:21:26.991Z,1.57
2022-09-21T13:24:06.192Z,1.43
2022-09-21T13:26:41.301Z,1.43
2022-09-21T13:29:17.364Z,1.50
2022-09-21T13:32:11.761Z,1.47
2022-09-21T13:34:42.764Z,1.50
2022-09-21T13:37:15.751Z,3.20
2022-09-21T13:39:58.134Z,1.73
2022-09-21T13:42:34.858Z,2.50
2022-09-21T13:45:34.243Z,2.20
2022-09-21T13:48:20.449Z,4.57
2022-09-21T13:50:47.522Z,1.60
2022-09-21T13:53:28.732Z,1.70
2022-09-21T13:56:22.980Z,1.60
2022-09-21T13:58:54.122Z,1.40
2022-09-21T14:01:46.247Z,1.80
2022-09-21T14:04:36.854Z,2.97
2022-09-21T14:07:07.954Z,1.00
2022-09-21T14:09:54.290Z,1.80
2022-09-21T14:12:26.662Z,1.10
2022-09-21T14:15:36.122Z,1.53
2022-09-21T14:18:37.635Z,2.40
2022-09-21T14:21:08.703Z,1.60
2022-09-21T14:23:39.334Z,1.47
2022-09-21T14:26:36.767Z,2.10
2022-09-21T14:29:17.693Z,1.97
2022-09-21T14:31:45.543Z,1.00
2022-09-21T14:34:23.874Z,1.40
2022-09-21T14:36:55.954Z,1.03
2022-09-21T14:39:35.982Z,6.30
2022-09-21T14:42:13.559Z,5.77
2022-09-21T14:44:43.075Z,1.80
2022-09-21T14:47:45.111Z,1.10
2022-09-21T14:50:40.802Z,1.53
2022-09-21T14:54:21.342Z,3.40
2022-09-21T14:57:05.802Z,2.20
2022-09-21T15:00:05.401Z,3.53
2022-09-21T15:02:37.331Z,1.13
2022-09-21T15:05:33.932Z,1.80
2022-09-21T15:09:04.860Z,1.90
2022-09-21T15:11:42.272Z,1.70
2022-09-21T15:14:44.531Z,1.57
2022-09-21T15:17:32.790Z,1.03
2022-09-21T15:20:03.644Z,3.33
2022-09-21T15:22:33.678Z,0.73
2022-09-21T15:25:06.138Z,0.93
2022-09-21T15:27:33.900Z,1.10
2022-09-21T15:30:06.911Z,0.80
2022-09-21T15:32:44.120Z,1.13
2022-09-21T15:35:27.572Z,1.43
2022-09-21T15:37:56.283Z,1.07
2022-09-21T15:40:26.887Z,1.10
2022-09-21T15:43:05.793Z,1.37
2022-09-21T15:45:54.851Z,1.00
2022-09-21T15:48:34.171Z,1.20
2022-09-21T15:51:27.364Z,1.10
2022-09-21T15:54:10.135Z,1.50
2022-09-21T15:56:40.732Z,1.47
2022-09-21T15:59:14.414Z,2.23
2022-09-21T16:02:10.436Z,1.60
2022-09-21T16:04:39.653Z,1.63
2022-09-21T16:07:27.341Z,1.50
2022-09-21T16:09:55.131Z,3.80
2022-09-21T16:12:40.073Z,4.20
2022-09-21T16:15:29.481Z,1.20
2022-09-21T16:18:05.104Z,4.17
2022-09-21T16:20:42.837Z,1.37
2022-09-21T16:23:17.387Z,2.00
2022-09-21T16:25:46.133Z,1.27
2022-09-21T16:28:19.287Z,1.90
2022-09-21T16:30:56.445Z,2.80
2022-09-21T16:33:57.214Z,1.13
2022-09-21T16:36:26.065Z,1.20
2022-09-21T16:38:56.817Z,1.10
2022-09-21T16:41:40.672Z,1.83
2022-09-21T16:44:25.857Z,1.30
2022-09-21T16:47:04.080Z,3.63
2022-09-21T16:49:35.298Z,1.50
2022-09-21T16:52:02.926Z,5.43
2022-09-21T16:54:34.668Z,1.83
2022-09-21T16:57:06.376Z,1.30
2022-09-21T16:59:34.922Z,1.50
2022-09-21T17:02:14.527Z,2.27
2022-09-21T17:04:45.202Z,1.50
2022-09-21T17:07:17.391Z,2.10
2022-09-21T17:09:48.115Z,3.17
2022-09-21T17:12:18.350Z,7.97
2022-09-21T17:14:47.311Z,2.20
2022-09-21T17:17:21.743Z,6.10
2022-09-21T17:19:51.081Z,2.60
2022-09-21T17:22:19.643Z,3.40
2022-09-21T17:24:51.671Z,1.53
2022-09-21T17:27:23.380Z,1.67
2022-09-21T17:29:51.251Z,2.00
2022-09-21T17:32:22.442Z,1.90
2022-09-21T17:35:34.270Z,1.67
2022-09-21T17:38:01.279Z,2.47
2022-09-21T17:40:30.051Z,20.13
2022-09-21T17:43:13.641Z,45.07
2022-09-21T17:46:18.822Z,24.33
2022-09-21T17:48:46.291Z,10.13
2022-09-21T17:51:33.680Z,12.67
2022-09-21T17:54:02.343Z,10.20
2022-09-21T17:56:54.500Z,10.80
2022-09-21T17:59:34.799Z,9.50
2022-09-21T18:02:06.628Z,10.00
2022-09-21T18:04:38.830Z,14.30
2022-09-21T18:07:07.889Z,8.63
2022-09-21T18:09:35.461Z,7.73
2022-09-21T18:12:54.930Z,7.97
2022-09-21T18:15:40.106Z,12.00
2022-09-21T18:18:20.567Z,10.37
2022-09-21T18:21:02.355Z,11.80
2022-09-21T18:24:10.845Z,12.47
2022-09-21T18:26:39.743Z,11.90
2022-09-21T18:29:28.610Z,13.67
2022-09-21T18:32:13.691Z,13.40
2022-09-21T18:34:46.263Z,64.00
2022-09-21T18:37:33.439Z,14.70
2022-09-21T18:40:29.409Z,8.37
2022-09-21T18:43:36.590Z,7.63
2022-09-21T18:46:29.649Z,10.47
2022-09-21T18:49:17.032Z,9.90
2022-09-21T18:52:07.531Z,10.77
2022-09-21T18:54:35.150Z,28.70
2022-09-21T18:57:08.551Z,22.30
2022-09-21T18:59:36.132Z,11.07
2022-09-21T19:02:03.515Z,10.30
2022-09-21T19:04:31.226Z,24.40
2022-09-21T19:07:30.356Z,25.30
2022-09-21T19:10:13.100Z,22.10
2022-09-21T19:12:52.813Z,24.37
2022-09-21T19:15:59.392Z,22.20
2022-09-21T19:18:52.176Z,21.37
2022-09-21T19:21:37.882Z,15.30
2022-09-21T19:24:46.943Z,16.30
2022-09-21T19:27:41.958Z,20.10
2022-09-21T19:30:15.786Z,16.07
2022-09-21T19:32:49.912Z,18.47
2022-09-21T19:35:25.722Z,16.37
2022-09-21T19:37:57.392Z,13.70
2022-09-21T19:40:29.057Z,16.73
2022-09-21T19:43:48.019Z,8.57
2022-09-21T19:46:34.653Z,10.23
2022-09-21T19:49:24.218Z,8.20
2022-09-21T19:51:59.279Z,6.97
2022-09-21T19:54:54.104Z,8.47
2022-09-21T19:57:52.769Z,6.60
2022-09-21T20:00:31.009Z,7.83
2022-09-21T20:03:09.155Z,7.10
2022-09-21T20:06:00.940Z,8.53
2022-09-21T20:08:49.801Z,6.83
2022-09-21T20:11:30.365Z,7.57
2022-09-21T20:14:05.383Z,6.30
2022-09-21T20:17:02.563Z,7.07
2022-09-21T20:19:53.831Z,7.10
2022-09-21T20:22:41.701Z,6.60
2022-09-21T20:25:48.365Z,8.40
2022-09-21T20:28:15.937Z,7.90
2022-09-21T20:30:43.110Z,8.10
2022-09-21T20:33:17.342Z,8.40
2022-09-21T20:35:45.162Z,12.20
2022-09-21T20:38:12.433Z,11.10
2022-09-21T20:40:40.051Z,12.30
2022-09-21T20:43:08.428Z,8.90
2022-09-21T20:45:35.781Z,9.63
2022-09-21T20:48:29.283Z,8.00
2022-09-21T20:50:57.342Z,8.17
2022-09-21T20:53:25.252Z,7.50
2022-09-21T20:55:58.211Z,7.27
2022-09-21T20:58:25.411Z,8.43
2022-09-21T21:00:58.071Z,8.13
2022-09-21T21:03:26.120Z,9.70
2022-09-21T21:05:53.111Z,10.13
2022-09-21T21:08:20.301Z,9.00
2022-09-21T21:10:47.819Z,9.53
2022-09-21T21:13:14.880Z,8.97
2022-09-21T21:15:41.916Z,8.70
2022-09-21T21:18:12.657Z,10.90
2022-09-21T21:20:41.170Z,9.90
2022-09-21T21:23:09.118Z,8.10
2022-09-21T21:25:36.150Z,9.50
2022-09-21T21:28:04.120Z,8.20
2022-09-21T21:30:31.873Z,11.50
2022-09-21T21:32:59.011Z,8.30
2022-09-21T21:35:26.202Z,8.97
2022-09-21T21:37:53.385Z,10.67
2022-09-21T21:40:21.095Z,9.87
2022-09-21T21:42:48.193Z,10.83
2022-09-21T21:45:15.338Z,8.70
2022-09-21T21:47:42.379Z,10.03
2022-09-21T21:50:11.382Z,8.70
2022-09-21T21:52:38.936Z,15.30
2022-09-21T21:55:08.109Z,10.40
2022-09-21T21:57:35.173Z,10.10
2022-09-21T22:00:02.682Z,9.07
2022-09-21T22:02:29.806Z,8.83
2022-09-21T22:04:56.863Z,9.53
2022-09-21T22:07:23.885Z,7.33
2022-09-21T22:09:50.769Z,9.70
2022-09-21T22:12:18.041Z,10.53
2022-09-21T22:14:46.723Z,8.23
2022-09-21T22:17:14.117Z,9.57
2022-09-21T22:19:41.155Z,10.90
2022-09-21T22:22:08.209Z,9.03
2022-09-21T22:24:35.367Z,9.23
2022-09-21T22:27:02.332Z,9.27
2022-09-21T22:29:29.237Z,9.53
2022-09-21T22:31:57.112Z,9.53
2022-09-21T22:34:24.181Z,8.33
2022-09-21T22:36:51.122Z,10.27
2022-09-21T22:39:18.341Z,9.40
2022-09-21T22:41:45.344Z,9.20
2022-09-21T22:44:12.360Z,9.93
2022-09-21T22:46:40.045Z,9.67
2022-09-21T22:49:07.842Z,7.47
2022-09-21T22:51:35.839Z,10.13
2022-09-21T22:54:02.835Z,8.37
2022-09-21T22:56:32.562Z,8.07
2022-09-21T22:59:02.663Z,7.63
2022-09-21T23:01:34.329Z,8.53
2022-09-21T23:04:06.355Z,8.30
2022-09-21T23:06:36.203Z,8.07
2022-09-21T23:09:08.590Z,8.30
2022-09-21T23:11:42.921Z,8.93
2022-09-21T23:14:12.131Z,10.80
2022-09-21T23:16:39.374Z,8.23
2022-09-21T23:19:07.232Z,9.87
2022-09-21T23:21:34.213Z,10.33
2022-09-21T23:24:03.159Z,10.60
2022-09-21T23:26:32.472Z,10.00
2022-09-21T23:29:04.091Z,9.40
2022-09-21T23:31:32.735Z,10.20
2022-09-21T23:34:07.627Z,10.37
2022-09-21T23:36:36.639Z,11.80
2022-09-21T23:39:07.461Z,8.30
2022-09-21T23:41:37.074Z,9.03
2022-09-21T23:44:06.342Z,10.07
2022-09-21T23:46:36.729Z,11.13
2022-09-21T23:49:05.053Z,9.63
2022-09-21T23:51:32.191Z,11.17
2022-09-21T23:54:00.503Z,9.53
2022-09-21T23:56:29.486Z,9.87
2022-09-21T23:58:56.620Z,9.80
